createdAt,value
2019-03-03T00:00:26.699Z,104.37
2019-03-03T00:03:12.084Z,102.13
2019-03-03T00:05:57.747Z,112.70
2019-03-03T00:08:42.855Z,98.17
2019-03-03T00:11:27.947Z,95.60
2019-03-03T00:14:12.871Z,97.50
2019-03-03T00:17:00.199Z,100.20
2019-03-03T00:19:46.679Z,95.50
2019-03-03T00:22:31.810Z,99.57
2019-03-03T00:25:21.215Z,96.17
2019-03-03T00:28:06.931Z,90.30
2019-03-03T00:30:51.691Z,93.50
2019-03-03T00:33:37.884Z,90.03
2019-03-03T00:36:24.563Z,93.30
2019-03-03T00:39:11.868Z,85.97
2019-03-03T00:41:59.518Z,88.37
2019-03-03T00:44:49.687Z,88.57
2019-03-03T00:47:51.928Z,91.70
2019-03-03T00:50:55.548Z,139.90
2019-03-03T00:53:59.123Z,85.93
2019-03-03T00:56:46.091Z,89.83
2019-03-03T00:59:48.886Z,87.13
2019-03-03T01:02:36.406Z,90.07
2019-03-03T01:05:24.688Z,91.60
2019-03-03T01:08:17.625Z,84.63
2019-03-03T01:11:07.527Z,88.37
2019-03-03T01:13:55.717Z,91.20
2019-03-03T01:16:45.347Z,90.80
2019-03-03T01:19:35.116Z,89.10
2019-03-03T01:22:40.341Z,85.57
2019-03-03T01:25:26.145Z,93.53
2019-03-03T01:28:11.521Z,90.43
2019-03-03T01:30:56.871Z,87.03
2019-03-03T01:33:42.102Z,87.37
2019-03-03T01:36:27.456Z,86.73
2019-03-03T01:39:13.950Z,85.67
2019-03-03T01:41:59.130Z,85.83
2019-03-03T01:44:44.346Z,80.97
2019-03-03T01:47:31.576Z,84.63
2019-03-03T01:50:17.091Z,84.93
2019-03-03T01:53:03.717Z,88.67
2019-03-03T01:55:52.947Z,79.27
2019-03-03T01:58:35.538Z,84.67
2019-03-03T02:01:21.115Z,85.97
2019-03-03T02:04:06.166Z,85.40
2019-03-03T02:06:51.275Z,92.63
2019-03-03T02:09:36.593Z,81.63
2019-03-03T02:12:21.673Z,81.70
2019-03-03T02:15:07.706Z,82.47
2019-03-03T02:17:53.074Z,87.47
2019-03-03T02:20:38.371Z,84.07
2019-03-03T02:23:25.592Z,87.50
2019-03-03T02:26:10.883Z,79.47
2019-03-03T02:28:56.079Z,81.60
2019-03-03T02:31:41.401Z,84.10
2019-03-03T02:34:26.429Z,87.30
2019-03-03T02:37:12.050Z,81.47
2019-03-03T02:39:57.007Z,88.50
2019-03-03T02:42:42.685Z,92.13
2019-03-03T02:45:37.424Z,84.27
2019-03-03T02:48:32.454Z,85.37
2019-03-03T02:51:21.290Z,85.43
2019-03-03T02:54:07.012Z,86.67
2019-03-03T02:56:51.995Z,82.80
2019-03-03T02:59:37.426Z,88.87
2019-03-03T03:02:35.600Z,89.10
2019-03-03T03:05:27.643Z,78.30
2019-03-03T03:08:18.751Z,83.27
2019-03-03T03:11:25.346Z,88.07
2019-03-03T03:14:17.368Z,83.27
2019-03-03T03:17:07.085Z,86.63
2019-03-03T03:19:55.728Z,93.03
2019-03-03T03:23:01.025Z,87.70
2019-03-03T03:25:53.060Z,89.20
2019-03-03T03:28:40.109Z,87.93
2019-03-03T03:31:27.500Z,89.17
2019-03-03T03:34:30.188Z,97.47
2019-03-03T03:37:32.670Z,89.80
2019-03-03T03:40:24.826Z,94.03
2019-03-03T03:43:14.133Z,93.40
2019-03-03T03:46:20.145Z,91.57
2019-03-03T03:49:10.220Z,93.20
2019-03-03T03:52:00.225Z,89.63
2019-03-03T03:54:53.871Z,87.83
2019-03-03T03:58:26.607Z,91.50
2019-03-03T04:00:45.160Z,85.70
2019-03-03T04:03:35.317Z,84.67
2019-03-03T04:06:27.339Z,86.83
2019-03-03T04:09:27.383Z,85.53
2019-03-03T04:12:23.597Z,90.07
2019-03-03T04:15:13.882Z,84.47
2019-03-03T04:18:03.883Z,88.27
2019-03-03T04:21:06.354Z,82.80
2019-03-03T04:24:11.550Z,80.13
2019-03-03T04:27:05.157Z,88.87
2019-03-03T04:30:07.025Z,88.00
2019-03-03T04:32:53.815Z,88.43
2019-03-03T04:35:41.026Z,87.23
2019-03-03T04:38:43.096Z,77.10
2019-03-03T04:41:30.578Z,79.87
2019-03-03T04:44:33.978Z,79.43
2019-03-03T04:47:34.088Z,80.50
2019-03-03T04:50:27.952Z,79.73
2019-03-03T04:53:17.184Z,78.30
2019-03-03T04:56:21.822Z,76.07
2019-03-03T04:59:21.663Z,85.37
2019-03-03T05:02:09.365Z,79.97
2019-03-03T05:05:01.012Z,76.37
2019-03-03T05:07:54.202Z,77.67
2019-03-03T05:10:46.991Z,80.60
2019-03-03T05:13:34.242Z,78.57
2019-03-03T05:16:30.964Z,76.57
2019-03-03T05:19:20.115Z,82.43
2019-03-03T05:22:06.361Z,84.30
2019-03-03T05:24:51.267Z,82.00
2019-03-03T05:27:36.714Z,75.33
2019-03-03T05:30:22.140Z,77.23
2019-03-03T05:33:06.942Z,74.47
2019-03-03T05:35:51.856Z,84.20
2019-03-03T05:38:37.117Z,83.33
2019-03-03T05:41:22.401Z,89.20
2019-03-03T05:44:07.638Z,80.10
2019-03-03T05:46:52.656Z,83.03
2019-03-03T05:49:39.047Z,85.00
2019-03-03T05:52:25.422Z,93.93
2019-03-03T05:55:10.658Z,100.30
2019-03-03T05:57:57.472Z,113.17
2019-03-03T06:00:43.216Z,125.37
2019-03-03T06:03:31.331Z,113.67
2019-03-03T06:06:32.343Z,129.37
2019-03-03T06:09:21.650Z,123.97
2019-03-03T06:12:07.027Z,125.10
2019-03-03T06:14:53.305Z,119.07
2019-03-03T06:17:39.701Z,119.47
2019-03-03T06:20:27.929Z,116.77
2019-03-03T06:23:17.207Z,106.97
2019-03-03T06:26:03.006Z,98.43
2019-03-03T06:28:50.732Z,106.33
2019-03-03T06:31:35.924Z,96.77
2019-03-03T06:34:23.184Z,90.40
2019-03-03T06:37:08.686Z,91.60
2019-03-03T06:39:56.484Z,89.93
2019-03-03T06:42:46.192Z,83.73
2019-03-03T06:45:34.393Z,88.30
2019-03-03T06:48:19.588Z,87.40
2019-03-03T06:51:06.941Z,79.33
2019-03-03T06:53:54.255Z,81.13
2019-03-03T06:56:41.715Z,85.30
2019-03-03T06:59:31.087Z,78.57
2019-03-03T07:02:19.329Z,83.93
2019-03-03T07:05:06.957Z,78.00
2019-03-03T07:07:54.156Z,75.37
2019-03-03T07:10:22.829Z,77.63
2019-03-03T07:12:51.049Z,76.43
2019-03-03T07:15:19.453Z,78.03
2019-03-03T07:17:50.601Z,78.33
2019-03-03T07:20:19.496Z,74.33
2019-03-03T07:22:48.999Z,79.67
2019-03-03T07:25:18.919Z,71.67
2019-03-03T07:27:47.123Z,82.23
2019-03-03T07:30:16.052Z,75.97
2019-03-03T07:33:04.887Z,77.30
2019-03-03T07:35:50.273Z,79.17
2019-03-03T07:38:36.288Z,78.00
2019-03-03T07:41:21.776Z,80.10
2019-03-03T07:44:06.971Z,81.03
2019-03-03T07:46:52.186Z,75.27
2019-03-03T07:49:37.666Z,80.77
2019-03-03T07:52:22.900Z,77.83
2019-03-03T07:55:09.483Z,79.27
2019-03-03T07:57:54.473Z,76.53
2019-03-03T08:00:40.243Z,75.73
2019-03-03T08:03:25.175Z,73.77
2019-03-03T08:06:12.687Z,71.37
2019-03-03T08:09:01.933Z,82.10
2019-03-03T08:11:50.960Z,77.97
2019-03-03T08:14:37.199Z,83.07
2019-03-03T08:17:24.784Z,90.43
2019-03-03T08:20:11.341Z,84.07
2019-03-03T08:22:56.715Z,92.83
2019-03-03T08:25:41.898Z,83.17
2019-03-03T08:28:27.065Z,83.33
2019-03-03T08:31:15.327Z,88.80
2019-03-03T08:34:00.402Z,86.63
2019-03-03T08:36:45.952Z,85.23
2019-03-03T08:39:33.974Z,89.43
2019-03-03T08:42:35.435Z,84.47
2019-03-03T08:45:27.372Z,93.70
2019-03-03T08:48:30.858Z,88.40
2019-03-03T08:51:27.305Z,86.67
2019-03-03T08:54:32.914Z,92.40
2019-03-03T08:57:36.614Z,86.90
2019-03-03T09:00:25.989Z,94.03
2019-03-03T09:03:29.281Z,108.63
2019-03-03T09:06:25.857Z,90.07
2019-03-03T09:09:28.050Z,86.30
2019-03-03T09:12:15.292Z,89.53
2019-03-03T09:15:10.981Z,84.57
2019-03-03T09:18:04.607Z,82.10
2019-03-03T09:20:52.984Z,90.37
2019-03-03T09:23:39.809Z,85.70
2019-03-03T09:26:35.969Z,87.03
2019-03-03T09:29:31.749Z,81.03
2019-03-03T09:32:19.087Z,78.43
2019-03-03T09:35:06.659Z,78.37
2019-03-03T09:38:10.290Z,85.37
2019-03-03T09:40:57.469Z,81.77
2019-03-03T09:43:45.108Z,80.33
2019-03-03T09:46:32.072Z,85.53
2019-03-03T09:49:25.823Z,102.80
2019-03-03T09:52:12.771Z,84.03
2019-03-03T09:55:00.275Z,79.97
2019-03-03T09:57:59.356Z,79.53
2019-03-03T10:00:52.361Z,77.77
2019-03-03T10:03:42.295Z,74.80
2019-03-03T10:06:31.495Z,74.53
2019-03-03T10:09:29.535Z,71.67
2019-03-03T10:12:16.694Z,80.97
2019-03-03T10:15:12.886Z,72.43
2019-03-03T10:18:01.479Z,75.90
2019-03-03T10:21:08.338Z,73.53
2019-03-03T10:24:08.602Z,73.97
2019-03-03T10:26:55.652Z,78.43
2019-03-03T10:29:45.111Z,71.07
2019-03-03T10:32:46.825Z,72.40
2019-03-03T10:35:50.582Z,70.13
2019-03-03T10:38:40.980Z,66.07
2019-03-03T10:41:36.936Z,87.40
2019-03-03T10:44:40.367Z,61.23
2019-03-03T10:47:42.702Z,64.87
2019-03-03T10:50:29.916Z,66.27
2019-03-03T10:53:25.976Z,58.87
2019-03-03T10:56:31.092Z,69.40
2019-03-03T10:59:22.169Z,63.53
2019-03-03T11:02:09.137Z,61.77
2019-03-03T11:05:18.519Z,66.90
2019-03-03T11:07:47.428Z,59.13
2019-03-03T11:10:35.393Z,59.60
2019-03-03T11:13:41.263Z,66.87
2019-03-03T11:16:30.907Z,59.27
2019-03-03T11:19:20.483Z,59.30
2019-03-03T11:22:24.114Z,59.13
2019-03-03T11:25:11.331Z,61.83
2019-03-03T11:27:58.808Z,61.00
2019-03-03T11:31:03.536Z,59.60
2019-03-03T11:33:56.424Z,55.80
2019-03-03T11:36:44.993Z,55.60
2019-03-03T11:39:38.052Z,48.07
2019-03-03T11:42:27.826Z,56.50
2019-03-03T11:45:21.878Z,56.37
2019-03-03T11:48:13.525Z,59.03
2019-03-03T11:51:03.916Z,51.67
2019-03-03T11:54:06.276Z,56.77
2019-03-03T11:56:55.769Z,50.87
2019-03-03T12:00:01.182Z,50.77
2019-03-03T12:03:04.930Z,56.83
2019-03-03T12:05:53.537Z,52.97
2019-03-03T12:08:58.421Z,54.03
2019-03-03T12:12:04.190Z,54.50
2019-03-03T12:15:02.073Z,64.40
2019-03-03T12:18:01.199Z,96.27
2019-03-03T12:20:54.369Z,60.57
2019-03-03T12:23:54.144Z,61.13
2019-03-03T12:26:46.525Z,54.23
2019-03-03T12:29:35.842Z,45.47
2019-03-03T12:32:28.595Z,52.57
2019-03-03T12:35:15.895Z,47.47
2019-03-03T12:38:04.559Z,49.53
2019-03-03T12:40:52.687Z,49.30
2019-03-03T12:43:42.617Z,63.60
2019-03-03T12:46:32.793Z,52.33
2019-03-03T12:49:20.461Z,50.30
2019-03-03T12:52:10.237Z,49.03
2019-03-03T12:54:59.791Z,48.77
2019-03-03T12:58:08.263Z,51.70
2019-03-03T13:01:09.720Z,60.33
2019-03-03T13:04:13.695Z,49.97
2019-03-03T13:07:12.983Z,48.03
2019-03-03T13:10:01.496Z,45.77
2019-03-03T13:12:50.977Z,49.60
2019-03-03T13:15:41.215Z,51.00
2019-03-03T13:18:28.804Z,47.17
2019-03-03T13:21:24.811Z,52.37
2019-03-03T13:24:15.154Z,47.80
2019-03-03T13:27:09.644Z,54.33
2019-03-03T13:30:09.262Z,45.80
2019-03-03T13:32:57.252Z,54.10
2019-03-03T13:35:55.881Z,50.57
2019-03-03T13:38:47.156Z,49.67
2019-03-03T13:41:50.844Z,48.87
2019-03-03T13:44:37.710Z,52.07
2019-03-03T13:47:24.733Z,45.73
2019-03-03T13:50:13.650Z,44.83
2019-03-03T13:53:00.086Z,43.33
2019-03-03T13:55:45.690Z,38.13
2019-03-03T13:58:33.831Z,44.50
2019-03-03T14:01:19.750Z,46.33
2019-03-03T14:04:25.063Z,45.83
2019-03-03T14:07:18.531Z,42.13
2019-03-03T14:10:11.806Z,48.90
2019-03-03T14:12:57.427Z,44.00
2019-03-03T14:15:42.651Z,45.50
2019-03-03T14:18:27.802Z,46.97
2019-03-03T14:21:13.274Z,38.63
2019-03-03T14:23:58.272Z,39.30
2019-03-03T14:29:43.714Z,54.27
2019-03-03T14:32:30.168Z,42.77
2019-03-03T14:35:34.943Z,32.00
2019-03-03T14:38:22.507Z,36.87
2019-03-03T14:41:07.738Z,46.13
2019-03-03T14:43:54.858Z,52.93
2019-03-03T14:46:39.925Z,46.93
2019-03-03T14:49:25.633Z,46.43
2019-03-03T14:52:10.570Z,37.10
2019-03-03T14:54:55.958Z,39.27
2019-03-03T14:57:41.203Z,38.10
2019-03-03T15:00:31.050Z,40.90
2019-03-03T15:03:17.795Z,41.47
2019-03-03T15:06:04.133Z,43.03
2019-03-03T15:08:51.090Z,50.40
2019-03-03T15:11:36.504Z,39.00
2019-03-03T15:14:22.006Z,37.57
2019-03-03T15:17:07.287Z,43.80
2019-03-03T15:19:52.316Z,40.00
2019-03-03T15:22:37.574Z,39.20
2019-03-03T15:25:09.624Z,52.90
2019-03-03T15:27:36.884Z,51.57
2019-03-03T15:30:13.881Z,45.77
2019-03-03T15:32:40.933Z,41.67
2019-03-03T15:35:09.198Z,42.73
2019-03-03T15:37:40.887Z,38.50
2019-03-03T15:40:14.936Z,37.07
2019-03-03T15:42:43.321Z,49.10
2019-03-03T15:45:14.211Z,46.70
2019-03-03T15:47:42.746Z,43.47
2019-03-03T15:50:10.966Z,39.67
2019-03-03T15:52:37.999Z,38.33
2019-03-03T15:55:08.552Z,41.57
2019-03-03T15:57:35.996Z,46.60
2019-03-03T16:00:06.967Z,45.20
2019-03-03T16:02:34.748Z,44.83
2019-03-03T16:05:02.292Z,48.20
2019-03-03T16:07:29.956Z,47.67
2019-03-03T16:09:57.343Z,42.90
2019-03-03T16:12:24.720Z,49.93
2019-03-03T16:14:53.962Z,52.80
2019-03-03T16:17:24.030Z,62.30
2019-03-03T16:19:50.837Z,51.17
2019-03-03T16:22:18.851Z,50.90
2019-03-03T16:24:47.440Z,49.47
2019-03-03T16:27:14.676Z,50.97
2019-03-03T16:29:42.442Z,54.37
2019-03-03T16:32:09.774Z,46.33
2019-03-03T16:34:38.507Z,49.60
2019-03-03T16:37:05.410Z,45.67
2019-03-03T16:39:33.703Z,53.03
2019-03-03T16:42:02.070Z,48.43
2019-03-03T16:44:29.579Z,44.03
2019-03-03T16:46:57.511Z,59.10
2019-03-03T16:49:24.620Z,46.37
2019-03-03T16:51:52.177Z,63.90
2019-03-03T16:54:20.321Z,62.47
2019-03-03T16:56:47.526Z,85.23
2019-03-03T16:59:17.865Z,81.77
2019-03-03T17:01:45.120Z,56.97
2019-03-03T17:04:12.634Z,43.97
2019-03-03T17:06:39.976Z,35.10
2019-03-03T17:09:07.775Z,37.00
2019-03-03T17:11:35.169Z,32.57
2019-03-03T17:14:02.518Z,45.37
2019-03-03T17:16:29.810Z,41.30
2019-03-03T17:18:57.274Z,39.17
2019-03-03T17:21:24.994Z,37.60
2019-03-03T17:23:52.292Z,40.27
2019-03-03T17:26:20.109Z,39.50
2019-03-03T17:28:47.543Z,42.63
2019-03-03T17:31:16.389Z,43.50
2019-03-03T17:33:43.243Z,43.53
2019-03-03T17:36:10.951Z,51.37
2019-03-03T17:38:41.403Z,45.93
2019-03-03T17:41:10.771Z,51.37
2019-03-03T17:43:41.184Z,70.97
2019-03-03T17:46:08.644Z,43.97
2019-03-03T17:48:38.457Z,39.17
2019-03-03T17:51:08.364Z,35.13
2019-03-03T17:53:36.571Z,35.03
2019-03-03T17:56:08.449Z,41.20
2019-03-03T17:58:37.039Z,36.70
2019-03-03T18:01:08.739Z,39.40
2019-03-03T18:03:36.670Z,37.37
2019-03-03T18:06:03.969Z,38.57
2019-03-03T18:08:30.835Z,37.50
2019-03-03T18:10:58.557Z,35.83
2019-03-03T18:13:27.754Z,36.60
2019-03-03T18:15:57.902Z,36.70
2019-03-03T18:18:25.572Z,38.63
2019-03-03T18:20:53.519Z,34.73
2019-03-03T18:23:22.608Z,32.33
2019-03-03T18:25:52.667Z,38.33
2019-03-03T18:28:22.019Z,36.70
2019-03-03T18:30:49.523Z,32.90
2019-03-03T18:33:17.194Z,40.03
2019-03-03T18:35:46.896Z,36.20
2019-03-03T18:38:17.025Z,40.00
2019-03-03T18:40:44.741Z,43.10
2019-03-03T18:43:12.888Z,40.57
2019-03-03T18:45:42.593Z,39.33
2019-03-03T18:48:10.103Z,46.20
2019-03-03T18:50:37.925Z,40.57
2019-03-03T18:53:05.247Z,42.10
2019-03-03T18:55:33.624Z,42.67
2019-03-03T18:58:00.781Z,48.80
2019-03-03T19:00:29.874Z,55.20
2019-03-03T19:02:58.473Z,45.40
2019-03-03T19:05:30.257Z,44.40
2019-03-03T19:07:57.424Z,40.97
2019-03-03T19:10:27.138Z,52.17
2019-03-03T19:12:54.471Z,48.87
2019-03-03T19:15:22.293Z,44.90
2019-03-03T19:17:52.490Z,44.20
2019-03-03T19:20:21.699Z,45.47
2019-03-03T19:22:49.689Z,51.10
2019-03-03T19:25:16.792Z,45.60
2019-03-03T19:27:45.539Z,46.77
2019-03-03T19:30:24.890Z,45.63
2019-03-03T19:32:56.725Z,43.30
2019-03-03T19:35:23.753Z,41.37
2019-03-03T19:37:52.236Z,43.33
2019-03-03T19:40:19.980Z,49.57
2019-03-03T19:42:47.337Z,44.83
2019-03-03T19:45:26.259Z,54.10
2019-03-03T19:47:55.322Z,44.83
2019-03-03T19:50:24.313Z,50.03
2019-03-03T19:52:52.000Z,47.40
2019-03-03T19:55:19.553Z,44.40
2019-03-03T19:57:48.321Z,45.67
2019-03-03T20:00:36.849Z,46.00
2019-03-03T20:03:04.053Z,48.70
2019-03-03T20:05:32.481Z,41.07
2019-03-03T20:08:00.881Z,46.60
2019-03-03T20:10:28.417Z,51.37
2019-03-03T20:12:55.897Z,48.97
2019-03-03T20:15:23.505Z,65.20
2019-03-03T20:17:51.045Z,49.33
2019-03-03T20:20:19.844Z,46.27
2019-03-03T20:22:50.940Z,47.70
2019-03-03T20:25:17.910Z,45.87
2019-03-03T20:27:45.300Z,52.33
2019-03-03T20:30:23.316Z,47.47
2019-03-03T20:33:08.579Z,49.77
2019-03-03T20:35:53.766Z,50.63
2019-03-03T20:38:41.513Z,52.83
2019-03-03T20:41:26.704Z,57.33
2019-03-03T20:44:12.041Z,49.90
2019-03-03T20:46:57.449Z,50.10
2019-03-03T20:49:42.681Z,43.77
2019-03-03T20:52:28.839Z,50.50
2019-03-03T20:55:17.520Z,48.10
2019-03-03T20:58:02.818Z,49.73
2019-03-03T21:00:48.128Z,45.70
2019-03-03T21:03:33.170Z,47.17
2019-03-03T21:06:19.246Z,46.57
2019-03-03T21:09:05.168Z,50.03
2019-03-03T21:11:52.098Z,48.77
2019-03-03T21:14:36.880Z,46.73
2019-03-03T21:17:22.038Z,49.03
2019-03-03T21:20:13.175Z,50.93
2019-03-03T21:22:58.359Z,45.53
2019-03-03T21:25:43.591Z,54.03
2019-03-03T21:28:28.681Z,46.80
2019-03-03T21:31:15.460Z,50.27
2019-03-03T21:34:00.745Z,47.17
2019-03-03T21:36:48.305Z,41.70
2019-03-03T21:39:33.493Z,54.07
2019-03-03T21:42:19.009Z,49.10
2019-03-03T21:45:07.807Z,42.70
2019-03-03T21:47:56.474Z,43.43
2019-03-03T21:50:42.127Z,43.23
2019-03-03T21:53:29.638Z,41.67
2019-03-03T21:56:15.007Z,40.30
2019-03-03T21:58:59.964Z,37.20
2019-03-03T22:01:44.933Z,47.13
2019-03-03T22:04:30.166Z,43.10
2019-03-03T22:07:15.313Z,40.60
2019-03-03T22:10:00.718Z,44.37
2019-03-03T22:12:45.744Z,45.70
2019-03-03T22:15:31.186Z,35.13
2019-03-03T22:18:16.371Z,39.03
2019-03-03T22:21:03.507Z,37.80
2019-03-03T22:23:48.558Z,41.23
2019-03-03T22:26:34.809Z,39.63
2019-03-03T22:29:20.563Z,40.10
2019-03-03T22:32:05.654Z,40.10
2019-03-03T22:34:51.358Z,36.00
2019-03-03T22:37:36.691Z,32.37
2019-03-03T22:40:23.263Z,41.87
2019-03-03T22:43:08.125Z,38.77
2019-03-03T22:45:53.914Z,39.43
2019-03-03T22:48:41.793Z,36.50
2019-03-03T22:51:27.396Z,41.30
2019-03-03T22:54:14.426Z,41.10
2019-03-03T22:56:59.586Z,40.77
2019-03-03T22:59:44.606Z,40.87
2019-03-03T23:02:29.907Z,42.67
2019-03-03T23:05:54.013Z,38.00
2019-03-03T23:08:48.844Z,40.40
2019-03-03T23:12:08.639Z,39.47
2019-03-03T23:15:02.099Z,38.27
2019-03-03T23:18:03.347Z,40.07
2019-03-03T23:21:17.758Z,40.87
2019-03-03T23:24:15.193Z,39.27
2019-03-03T23:27:00.357Z,41.40
2019-03-03T23:29:45.618Z,41.43
2019-03-03T23:32:31.505Z,40.27
2019-03-03T23:35:16.767Z,38.17
2019-03-03T23:38:05.643Z,33.73
2019-03-03T23:40:50.515Z,35.23
2019-03-03T23:43:35.920Z,36.93
2019-03-03T23:46:21.249Z,41.43
2019-03-03T23:49:06.339Z,40.93
2019-03-03T23:51:51.656Z,36.23
2019-03-03T23:54:38.922Z,39.90
2019-03-03T23:57:23.801Z,36.77
